Patriot — WDC2859 — position and weather

sailwx.info

Track history (hours):
 
Tides and Currents Weather Stations Pressure Air Temp Water Temp Dewpoint Dewpoint Depression Visibility Wind Speed Wind Dir Waves Ship Positions

Patriot

Owner: AMNAV Maritime Corporation, Oakland, CA. More information available from US FCC via Universal Licensing System and Coast Guard Vessel Documentation Center.

Last reported at 2017-Apr-26 06:24 UTC. Time now 2017-Apr-26 11:44 UTC.
Position N 38°02' W 122°08'.

Length 31 m; draft 4.6 m.

Type: Tug. MMSI: 366998680.

Date/timePositionNaut miles runAvg speedWind from/ knotsBaromVisibWave heightAir tempDewpointWater temp
2017-Apr-26 06:24N 38°02' W 122°08'3 1.1
2017-Apr-26 03:18N 38°03' W 122°12'310.3
2017-Apr-26 03:01N 38°04' W 122°16'5 9.3
2017-Apr-26 02:30N 38°02' W 122°21'510.3
2017-Apr-26 01:58N 37°58' W 122°26'4 9.0
2017-Apr-26 01:30N 37°54' W 122°23'1 1.5
2017-Apr-26 01:00N 37°54' W 122°22'1 2.3
2017-Apr-26 00:30N 37°54' W 122°23'0 0.3
2017-Apr-26 00:00N 37°54' W 122°23'0 0.0
2017-Apr-25 23:31N 37°54' W 122°23'1 2.4
2017-Apr-25 23:00N 37°55' W 122°22'0 0.6
2017-Apr-25 22:30N 37°55' W 122°22'0 0.1
2017-Apr-25 22:00N 37°55' W 122°22'1 1.7
2017-Apr-25 21:30N 37°54' W 122°22'1 2.7
2017-Apr-25 21:00N 37°54' W 122°23'1 3.0
2017-Apr-25 20:31N 37°54' W 122°25'1 2.4
2017-Apr-25 20:00N 37°53' W 122°25'0 0.7
2017-Apr-25 19:30N 37°53' W 122°25'0 0.6
2017-Apr-25 19:00N 37°53' W 122°25'3 7.0
2017-Apr-25 18:30N 37°50' W 122°22'3 5.7
2017-Apr-25 18:01N 37°49' W 122°19'0 0.0
2017-Apr-25 17:30N 37°49' W 122°19'0 0.0
2017-Apr-25 17:00N 37°49' W 122°19'0 0.0
2017-Apr-25 16:30N 37°49' W 122°19'0 0.0
2017-Apr-25 16:00N 37°49' W 122°19'0 0.0
2017-Apr-25 15:30N 37°49' W 122°19'0 0.0
2017-Apr-25 15:01N 37°49' W 122°19'0 0.0
2017-Apr-25 14:00N 37°49' W 122°19'0 0.0
2017-Apr-25 13:30N 37°49' W 122°19'0 0.0
2017-Apr-25 13:00N 37°49' W 122°19'0 0.0
2017-Apr-25 12:30N 37°49' W 122°19'0 0.0
2017-Apr-25 12:00N 37°49' W 122°19'0 0.0
2017-Apr-25 11:30N 37°49' W 122°19'0 0.0
2017-Apr-25 11:00N 37°49' W 122°19'0 0.0
2017-Apr-25 10:30N 37°49' W 122°19'0 0.0
2017-Apr-25 10:00N 37°49' W 122°19'0 0.0
2017-Apr-25 09:30N 37°49' W 122°19'0 0.0
2017-Apr-25 09:00N 37°49' W 122°19'0 0.0
2017-Apr-25 08:30N 37°49' W 122°19'0 0.0
2017-Apr-25 08:00N 37°49' W 122°19'0 0.0
2017-Apr-25 07:30N 37°49' W 122°19'0 0.0
2017-Apr-25 07:00N 37°49' W 122°19'0 0.0
2017-Apr-25 06:30N 37°49' W 122°19'0 0.0
2017-Apr-25 06:01N 37°49' W 122°19'0 0.0
2017-Apr-25 05:30N 37°49' W 122°19'0 0.0
2017-Apr-25 05:00N 37°49' W 122°19'0 0.0
2017-Apr-25 04:30N 37°49' W 122°19'0 0.0
2017-Apr-25 04:00N 37°49' W 122°19'0 0.0
2017-Apr-25 03:30N 37°49' W 122°19'0 0.0
2017-Apr-25 03:00N 37°49' W 122°19'0 0.0
2017-Apr-25 02:30N 37°49' W 122°19'4 7.4
2017-Apr-25 02:00N 37°51' W 122°23'612.3
2017-Apr-25 01:30N 37°57' W 122°26'713.5
2017-Apr-25 01:00N 38°02' W 122°21'10 0.5
2017-Apr-24 04:19N 38°02' W 122°09'0 0.0
2017-Apr-23 16:08N 38°02' W 122°09'110.7
2017-Apr-23 15:59N 38°03' W 122°10'3 6.1
2017-Apr-23 15:30N 38°04' W 122°14'0 0.1
2017-Apr-23 15:00N 38°04' W 122°14'1 1.2
2017-Apr-23 14:00N 38°04' W 122°15'3 6.8
2017-Apr-23 13:30N 38°03' W 122°19'4 7.8
2017-Apr-23 13:01N 38°01' W 122°24'4 8.4
2017-Apr-23 12:29N 37°56' W 122°26'4 8.7
2017-Apr-23 12:01N 37°53' W 122°24'5 9.5
2017-Apr-23 11:31N 37°49' W 122°21'2 3.7
2017-Apr-23 11:01N 37°49' W 122°19'0 0.0
2017-Apr-23 10:30N 37°49' W 122°19'0 0.0
2017-Apr-23 10:00N 37°49' W 122°19'0 0.0
2017-Apr-23 09:30N 37°49' W 122°19'0 0.0
2017-Apr-23 09:00N 37°49' W 122°19'0 0.0
2017-Apr-23 08:30N 37°49' W 122°19'0 0.0
2017-Apr-23 08:00N 37°49' W 122°19'0 0.0
2017-Apr-23 07:30N 37°49' W 122°19'0 0.0
2017-Apr-23 07:00N 37°49' W 122°19'0 0.0
2017-Apr-23 06:30N 37°49' W 122°19'0 0.0
2017-Apr-23 06:00N 37°49' W 122°19'0 0.0
2017-Apr-23 05:29N 37°49' W 122°19'0 0.0
2017-Apr-23 05:00N 37°49' W 122°19'0 0.0
2017-Apr-23 04:30N 37°49' W 122°19'0 0.0
2017-Apr-23 04:00N 37°49' W 122°19'0 0.0
2017-Apr-23 03:30N 37°49' W 122°19'0 0.0
2017-Apr-23 03:00N 37°49' W 122°19'0 0.0
2017-Apr-23 02:30N 37°49' W 122°19'0 0.0
2017-Apr-23 02:00N 37°49' W 122°19'0 0.0
2017-Apr-23 01:30N 37°49' W 122°19'0 0.0
2017-Apr-23 01:00N 37°49' W 122°19'0 0.0
2017-Apr-23 00:30N 37°49' W 122°19'0 0.0
2017-Apr-23 00:00N 37°49' W 122°19'0 0.0
2017-Apr-22 23:30N 37°49' W 122°19'0 0.0
2017-Apr-22 23:00N 37°49' W 122°19'0 0.0
2017-Apr-22 22:30N 37°49' W 122°19'0 0.0
2017-Apr-22 22:00N 37°49' W 122°19'0 0.0
2017-Apr-22 21:30N 37°49' W 122°19'0 0.0
2017-Apr-22 21:00N 37°49' W 122°19'0 0.0
2017-Apr-22 20:30N 37°49' W 122°19'0 0.0
2017-Apr-22 20:00N 37°49' W 122°19'0 0.0
2017-Apr-22 19:30N 37°49' W 122°19'0 0.0
2017-Apr-22 19:00N 37°49' W 122°19'0 0.0
2017-Apr-22 18:30N 37°49' W 122°19'0 0.0
2017-Apr-22 18:00N 37°49' W 122°19'0 0.0
2017-Apr-22 17:30N 37°49' W 122°19'0 0.0
2017-Apr-22 17:00N 37°49' W 122°19'0 0.0
2017-Apr-22 16:30N 37°49' W 122°19'0 0.0
2017-Apr-22 16:00N 37°49' W 122°19'0 0.0
2017-Apr-22 15:30N 37°49' W 122°19'0 0.0
2017-Apr-22 15:00N 37°49' W 122°19'0 0.0
2017-Apr-22 14:30N 37°49' W 122°19'2 1.6
2017-Apr-22 13:30N 37°48' W 122°19'1 1.6
2017-Apr-22 13:00N 37°48' W 122°18'1 1.6
2017-Apr-22 12:31N 37°48' W 122°17'2 3.9
2017-Apr-22 12:00N 37°48' W 122°20'2 3.4
2017-Apr-22 11:30N 37°49' W 122°19'0 0.1
2017-Apr-22 11:00N 37°49' W 122°19'0 0.0
2017-Apr-22 10:30N 37°49' W 122°19'0 0.0
2017-Apr-22 10:00N 37°49' W 122°19'0 0.0
2017-Apr-22 09:30N 37°49' W 122°19'0 0.0
2017-Apr-22 09:00N 37°49' W 122°19'0 0.0
2017-Apr-22 08:30N 37°49' W 122°19'0 0.0
2017-Apr-22 08:00N 37°49' W 122°19'0 0.0
2017-Apr-22 07:30N 37°49' W 122°19'0 0.0
2017-Apr-22 07:00N 37°49' W 122°19'0 0.0
2017-Apr-22 06:30N 37°49' W 122°19'0 0.0
2017-Apr-22 06:00N 37°49' W 122°19'0 0.0
2017-Apr-22 05:30N 37°49' W 122°19'0 0.0
2017-Apr-22 05:00N 37°49' W 122°19'0 0.0
2017-Apr-22 04:30N 37°49' W 122°19'0 0.0
2017-Apr-22 04:00N 37°49' W 122°19'0 0.0
2017-Apr-22 03:30N 37°49' W 122°19'0 0.0
2017-Apr-22 03:00N 37°49' W 122°19'0 0.0
2017-Apr-22 02:30N 37°49' W 122°19'0 0.0
2017-Apr-22 02:00N 37°49' W 122°19'0 0.0
2017-Apr-22 01:30N 37°49' W 122°19'0 0.0
2017-Apr-22 01:00N 37°49' W 122°19'0 0.0
2017-Apr-22 00:30N 37°49' W 122°19'0 0.0
2017-Apr-22 00:00N 37°49' W 122°19'0 0.6
2017-Apr-21 23:30N 37°49' W 122°19'1 2.8
2017-Apr-21 23:00N 37°48' W 122°19'0 0.1
2017-Apr-21 22:30N 37°48' W 122°19'0 0.0
2017-Apr-21 22:00N 37°48' W 122°19'0 0.0
2017-Apr-21 21:30N 37°48' W 122°19'1 1.8
2017-Apr-21 21:00N 37°48' W 122°20'510.4
2017-Apr-21 20:30N 37°52' W 122°24'711.1
2017-Apr-21 19:50N 37°60' W 122°25'511.1
2017-Apr-21 19:21N 38°03' W 122°20'511.3
2017-Apr-21 18:55N 38°04' W 122°14'4 4.5
2017-Apr-21 17:55N 38°02' W 122°08'0 0.0
2017-Apr-21 17:30N 38°02' W 122°08'0 0.0
2017-Apr-21 17:00N 38°02' W 122°08'0 0.0
2017-Apr-21 16:30N 38°02' W 122°08'0 0.0
2017-Apr-21 16:00N 38°02' W 122°08'0 0.0
2017-Apr-21 15:30N 38°02' W 122°08'0 0.0
2017-Apr-21 15:00N 38°02' W 122°08'0 0.2
2017-Apr-21 14:21N 38°02' W 122°08'0 0.1
2017-Apr-21 13:21N 38°02' W 122°08'1 2.9
2017-Apr-21 13:00N 38°02' W 122°09'0 0.8
2017-Apr-21 12:30N 38°02' W 122°10'1 0.0
2017-Apr-20 04:48N 38°02' W 122°08'3 2.1
2017-Apr-20 03:35N 38°03' W 122°11'213.2
2017-Apr-20 03:29N 38°04' W 122°13'713.1
2017-Apr-20 02:58N 38°02' W 122°21'612.9
2017-Apr-20 02:30N 37°58' W 122°26'612.5
2017-Apr-20 02:00N 37°52' W 122°24'610.4
2017-Apr-20 01:28N 37°48' W 122°19'0 0.2
2017-Apr-20 01:00N 37°48' W 122°19'1 1.8
2017-Apr-20 00:31N 37°48' W 122°20'2 3.2
2017-Apr-20 00:00N 37°49' W 122°19'0 0.0
2017-Apr-19 23:30N 37°49' W 122°19'0 0.0
2017-Apr-19 23:00N 37°49' W 122°19'0 0.0
2017-Apr-19 22:30N 37°49' W 122°19'0 0.0
2017-Apr-19 22:00N 37°49' W 122°19'0 0.0
2017-Apr-19 21:30N 37°49' W 122°19'0 0.0
2017-Apr-19 21:00N 37°49' W 122°19'0 0.0
2017-Apr-19 20:30N 37°49' W 122°19'0 0.0
2017-Apr-19 20:00N 37°49' W 122°19'0 0.0
2017-Apr-19 19:30N 37°49' W 122°19'0 0.0
2017-Apr-19 19:00N 37°49' W 122°19'0 0.0
2017-Apr-19 18:30N 37°49' W 122°19'0 0.0
2017-Apr-19 18:00N 37°49' W 122°19'0 0.0
2017-Apr-19 17:30N 37°49' W 122°19'0 0.0
2017-Apr-19 17:00N 37°49' W 122°19'0 0.0
2017-Apr-19 16:30N 37°49' W 122°19'0 0.0
2017-Apr-19 16:00N 37°49' W 122°19'0 0.0
2017-Apr-19 15:30N 37°49' W 122°19'0 0.0
2017-Apr-19 15:00N 37°49' W 122°19'1 1.1
2017-Apr-19 14:30N 37°49' W 122°19'2 1.6
2017-Apr-19 13:31N 37°48' W 122°18'0 0.6
2017-Apr-19 13:00N 37°48' W 122°18'3 5.1
2017-Apr-19 12:30N 37°48' W 122°21'2 3.9
2017-Apr-19 12:01N 37°47' W 122°23'0 0.0
2017-Apr-19 11:30N 37°47' W 122°23'0 0.1
2017-Apr-19 11:00N 37°47' W 122°23'0 0.0
2017-Apr-19 10:30N 37°47' W 122°23'0 0.0
2017-Apr-19 10:00N 37°47' W 122°23'0 0.0
2017-Apr-19 09:31N 37°47' W 122°23'0 0.0
2017-Apr-19 09:00N 37°47' W 122°23'0 0.0
2017-Apr-19 08:30N 37°47' W 122°23'4 8.6
2017-Apr-19 08:00N 37°51' W 122°24'713.0
2017-Apr-19 07:30N 37°58' W 122°26'712.3
2017-Apr-19 06:58N 38°03' W 122°20'4 8.1
2017-Apr-19 06:30N 38°03' W 122°16'0 0.0
2017-Apr-19 06:00N 38°03' W 122°16'0 0.0
2017-Apr-19 05:30N 38°03' W 122°16'0 0.3
2017-Apr-19 04:59N 38°04' W 122°16'2 4.0
2017-Apr-19 04:30N 38°03' W 122°18'3 5.2
2017-Apr-19 04:00N 38°03' W 122°15'0 0.0
2017-Apr-19 03:30N 38°03' W 122°15'0 0.0
2017-Apr-19 03:00N 38°03' W 122°15'0 0.0
2017-Apr-19 02:30N 38°03' W 122°15'0 0.0
2017-Apr-19 02:00N 38°03' W 122°15'0 0.0
2017-Apr-19 01:30N 38°03' W 122°15'5 0.4
2017-Apr-18 11:19N 38°02' W 122°08'2 0.4
2017-Apr-18 05:46N 38°03' W 122°11'311.2
2017-Apr-18 05:29N 38°04' W 122°15'611.6
2017-Apr-18 05:00N 38°02' W 122°22'611.2
2017-Apr-18 04:30N 37°57' W 122°26'2 4.3
2017-Apr-18 04:00N 37°55' W 122°25'0 0.5
2017-Apr-18 03:30N 37°56' W 122°25'0 0.1
2017-Apr-18 03:00N 37°56' W 122°25'0 0.0
2017-Apr-18 02:30N 37°56' W 122°25'0 0.0
2017-Apr-18 02:00N 37°56' W 122°25'0 0.0
2017-Apr-18 01:30N 37°56' W 122°25'0 0.0
2017-Apr-18 01:00N 37°56' W 122°25'0 0.0
2017-Apr-18 00:30N 37°56' W 122°25'2 3.0
2017-Apr-17 23:59N 37°57' W 122°26'5 8.7
2017-Apr-17 23:25N 38°01' W 122°23'410.2
2017-Apr-17 23:00N 38°03' W 122°18'4 7.9
2017-Apr-17 22:30N 38°03' W 122°13'0 0.1
2017-Apr-17 22:00N 38°04' W 122°13'3 5.4
2017-Apr-17 21:30N 38°04' W 122°16'3 5.7
2017-Apr-17 21:00N 38°03' W 122°20'5 9.3
2017-Apr-17 20:30N 37°60' W 122°24'611.5
2017-Apr-17 20:00N 37°54' W 122°25'5 9.6
2017-Apr-17 19:30N 37°50' W 122°22'3 5.3
2017-Apr-17 19:00N 37°49' W 122°19'0 0.0
2017-Apr-17 18:30N 37°49' W 122°19'0 0.0
2017-Apr-17 18:00N 37°49' W 122°19'0 0.0
2017-Apr-17 17:30N 37°49' W 122°19'0 0.0
2017-Apr-17 17:00N 37°49' W 122°19'0 0.0
2017-Apr-17 16:30N 37°49' W 122°19'0 0.0
2017-Apr-17 16:00N 37°49' W 122°19'0 0.0
2017-Apr-17 15:30N 37°49' W 122°19'0 0.0
2017-Apr-17 15:01N 37°49' W 122°19'0 0.0
2017-Apr-17 14:01N 37°49' W 122°19'0 0.0
2017-Apr-17 13:30N 37°49' W 122°19'0 0.0
2017-Apr-17 13:01N 37°49' W 122°19'0 0.0
2017-Apr-17 12:30N 37°49' W 122°19'0 0.0
2017-Apr-17 12:01N 37°49' W 122°19'0 0.0
2017-Apr-17 11:31N 37°49' W 122°19'0 0.0
2017-Apr-17 11:00N 37°49' W 122°19'0 0.0
2017-Apr-17 10:30N 37°49' W 122°19'0 0.0
2017-Apr-17 10:01N 37°49' W 122°19'0 0.0
2017-Apr-17 09:31N 37°49' W 122°19'0 0.0
2017-Apr-17 09:01N 37°49' W 122°19'0 0.0
2017-Apr-17 08:31N 37°49' W 122°19'0 0.0
2017-Apr-17 08:00N 37°49' W 122°19'0 0.0
2017-Apr-17 07:30N 37°49' W 122°19'0 0.0
2017-Apr-17 07:00N 37°49' W 122°19'0 0.0
2017-Apr-17 06:31N 37°49' W 122°19'0 0.0
2017-Apr-17 06:01N 37°49' W 122°19'2 3.5
2017-Apr-17 05:31N 37°48' W 122°21'510.5
2017-Apr-17 05:01N 37°43' W 122°20'11 3.6
2017-Apr-17 02:01N 37°34' W 122°13'011.2
2017-Apr-17 01:59N 37°34' W 122°14'511.3
2017-Apr-17 01:31N 37°38' W 122°18'611.0
2017-Apr-17 01:00N 37°44' W 122°20'510.3
2017-Apr-17 00:31N 37°49' W 122°20'1 2.9
2017-Apr-17 00:01N 37°49' W 122°19'0 0.0
2017-Apr-16 23:30N 37°49' W 122°19'0 0.0
2017-Apr-16 23:01N 37°49' W 122°19'0 0.0
2017-Apr-16 22:31N 37°49' W 122°19'0 0.0
2017-Apr-16 22:00N 37°49' W 122°19'0 0.0
2017-Apr-16 21:30N 37°49' W 122°19'0 0.0
2017-Apr-16 21:00N 37°49' W 122°19'0 0.0
2017-Apr-16 20:31N 37°49' W 122°19'0 0.0
2017-Apr-16 20:00N 37°49' W 122°19'0 0.0
2017-Apr-16 19:30N 37°49' W 122°19'0 0.0
2017-Apr-16 19:01N 37°49' W 122°19'0 0.0
2017-Apr-16 18:30N 37°49' W 122°19'0 0.0
2017-Apr-16 18:01N 37°49' W 122°19'0 0.0
2017-Apr-16 17:30N 37°49' W 122°19'0 0.0
2017-Apr-16 17:01N 37°49' W 122°19'0 0.0
2017-Apr-16 16:30N 37°49' W 122°19'0 0.0
2017-Apr-16 16:00N 37°49' W 122°19'0 0.0
2017-Apr-16 15:31N 37°49' W 122°19'0 0.0
2017-Apr-16 15:01N 37°49' W 122°19'0 0.0
2017-Apr-16 14:31N 37°49' W 122°19'0 0.1
2017-Apr-16 13:30N 37°49' W 122°19'2 3.3
2017-Apr-16 13:00N 37°48' W 122°19'0 0.5
2017-Apr-16 12:30N 37°48' W 122°19'3 6.0
2017-Apr-16 12:00N 37°48' W 122°23'3 6.6
2017-Apr-16 11:30N 37°49' W 122°19'0 0.0
2017-Apr-16 11:01N 37°49' W 122°19'0 0.0
2017-Apr-16 10:31N 37°49' W 122°19'0 0.0
2017-Apr-16 10:00N 37°49' W 122°19'0 0.0
2017-Apr-16 09:30N 37°49' W 122°19'0 0.0
2017-Apr-16 09:01N 37°49' W 122°19'0 0.0
2017-Apr-16 08:30N 37°49' W 122°19'0 0.0
2017-Apr-16 08:00N 37°49' W 122°19'0 0.0
2017-Apr-16 07:31N 37°49' W 122°19'0 0.0
2017-Apr-16 07:00N 37°49' W 122°19'0 0.0
2017-Apr-16 06:31N 37°49' W 122°19'  
Track history (hours):
 
Tides and Currents Weather Stations Pressure Air Temp Water Temp Dewpoint Dewpoint Depression Visibility Wind Speed Wind Dir Waves Ship Positions

Patriot

Owner: AMNAV Maritime Corporation, Oakland, CA. More information available from US FCC via Universal Licensing System and Coast Guard Vessel Documentation Center.

Last reported at 2017-Apr-26 06:24 UTC. Time now 2017-Apr-26 11:44 UTC.
Position N 38°02' W 122°08'.

Length 31 m; draft 4.6 m.

Type: Tug. MMSI: 366998680.

Date/timePositionNaut miles runAvg speedWind from/ knotsBaromVisibWave heightAir tempDewpointWater temp
2017-Apr-26 06:24N 38°02' W 122°08'3 1.1
2017-Apr-26 03:18N 38°03' W 122°12'310.3
2017-Apr-26 03:01N 38°04' W 122°16'5 9.3
2017-Apr-26 02:30N 38°02' W 122°21'510.3
2017-Apr-26 01:58N 37°58' W 122°26'4 9.0
2017-Apr-26 01:30N 37°54' W 122°23'1 1.5
2017-Apr-26 01:00N 37°54' W 122°22'1 2.3
2017-Apr-26 00:30N 37°54' W 122°23'0 0.3
2017-Apr-26 00:00N 37°54' W 122°23'0 0.0
2017-Apr-25 23:31N 37°54' W 122°23'1 2.4
2017-Apr-25 23:00N 37°55' W 122°22'0 0.6
2017-Apr-25 22:30N 37°55' W 122°22'0 0.1
2017-Apr-25 22:00N 37°55' W 122°22'1 1.7
2017-Apr-25 21:30N 37°54' W 122°22'1 2.7
2017-Apr-25 21:00N 37°54' W 122°23'1 3.0
2017-Apr-25 20:31N 37°54' W 122°25'1 2.4
2017-Apr-25 20:00N 37°53' W 122°25'0 0.7
2017-Apr-25 19:30N 37°53' W 122°25'0 0.6
2017-Apr-25 19:00N 37°53' W 122°25'3 7.0
2017-Apr-25 18:30N 37°50' W 122°22'3 5.7
2017-Apr-25 18:01N 37°49' W 122°19'0 0.0
2017-Apr-25 17:30N 37°49' W 122°19'0 0.0
2017-Apr-25 17:00N 37°49' W 122°19'0 0.0
2017-Apr-25 16:30N 37°49' W 122°19'0 0.0
2017-Apr-25 16:00N 37°49' W 122°19'0 0.0
2017-Apr-25 15:30N 37°49' W 122°19'0 0.0
2017-Apr-25 15:01N 37°49' W 122°19'0 0.0
2017-Apr-25 14:00N 37°49' W 122°19'0 0.0
2017-Apr-25 13:30N 37°49' W 122°19'0 0.0
2017-Apr-25 13:00N 37°49' W 122°19'0 0.0
2017-Apr-25 12:30N 37°49' W 122°19'0 0.0
2017-Apr-25 12:00N 37°49' W 122°19'0 0.0
2017-Apr-25 11:30N 37°49' W 122°19'0 0.0
2017-Apr-25 11:00N 37°49' W 122°19'0 0.0
2017-Apr-25 10:30N 37°49' W 122°19'0 0.0
2017-Apr-25 10:00N 37°49' W 122°19'0 0.0
2017-Apr-25 09:30N 37°49' W 122°19'0 0.0
2017-Apr-25 09:00N 37°49' W 122°19'0 0.0
2017-Apr-25 08:30N 37°49' W 122°19'0 0.0
2017-Apr-25 08:00N 37°49' W 122°19'0 0.0
2017-Apr-25 07:30N 37°49' W 122°19'0 0.0
2017-Apr-25 07:00N 37°49' W 122°19'0 0.0
2017-Apr-25 06:30N 37°49' W 122°19'0 0.0
2017-Apr-25 06:01N 37°49' W 122°19'0 0.0
2017-Apr-25 05:30N 37°49' W 122°19'0 0.0
2017-Apr-25 05:00N 37°49' W 122°19'0 0.0
2017-Apr-25 04:30N 37°49' W 122°19'0 0.0
2017-Apr-25 04:00N 37°49' W 122°19'0 0.0
2017-Apr-25 03:30N 37°49' W 122°19'0 0.0
2017-Apr-25 03:00N 37°49' W 122°19'0 0.0
2017-Apr-25 02:30N 37°49' W 122°19'4 7.4
2017-Apr-25 02:00N 37°51' W 122°23'612.3
2017-Apr-25 01:30N 37°57' W 122°26'713.5
2017-Apr-25 01:00N 38°02' W 122°21'10 0.5
2017-Apr-24 04:19N 38°02' W 122°09'0 0.0
2017-Apr-23 16:08N 38°02' W 122°09'110.7
2017-Apr-23 15:59N 38°03' W 122°10'3 6.1
2017-Apr-23 15:30N 38°04' W 122°14'0 0.1
2017-Apr-23 15:00N 38°04' W 122°14'1 1.2
2017-Apr-23 14:00N 38°04' W 122°15'3 6.8
2017-Apr-23 13:30N 38°03' W 122°19'4 7.8
2017-Apr-23 13:01N 38°01' W 122°24'4 8.4
2017-Apr-23 12:29N 37°56' W 122°26'4 8.7
2017-Apr-23 12:01N 37°53' W 122°24'5 9.5
2017-Apr-23 11:31N 37°49' W 122°21'2 3.7
2017-Apr-23 11:01N 37°49' W 122°19'0 0.0
2017-Apr-23 10:30N 37°49' W 122°19'0 0.0
2017-Apr-23 10:00N 37°49' W 122°19'0 0.0
2017-Apr-23 09:30N 37°49' W 122°19'0 0.0
2017-Apr-23 09:00N 37°49' W 122°19'0 0.0
2017-Apr-23 08:30N 37°49' W 122°19'0 0.0
2017-Apr-23 08:00N 37°49' W 122°19'0 0.0
2017-Apr-23 07:30N 37°49' W 122°19'0 0.0
2017-Apr-23 07:00N 37°49' W 122°19'0 0.0
2017-Apr-23 06:30N 37°49' W 122°19'0 0.0
2017-Apr-23 06:00N 37°49' W 122°19'0 0.0
2017-Apr-23 05:29N 37°49' W 122°19'0 0.0
2017-Apr-23 05:00N 37°49' W 122°19'0 0.0
2017-Apr-23 04:30N 37°49' W 122°19'0 0.0
2017-Apr-23 04:00N 37°49' W 122°19'0 0.0
2017-Apr-23 03:30N 37°49' W 122°19'0 0.0
2017-Apr-23 03:00N 37°49' W 122°19'0 0.0
2017-Apr-23 02:30N 37°49' W 122°19'0 0.0
2017-Apr-23 02:00N 37°49' W 122°19'0 0.0
2017-Apr-23 01:30N 37°49' W 122°19'0 0.0
2017-Apr-23 01:00N 37°49' W 122°19'0 0.0
2017-Apr-23 00:30N 37°49' W 122°19'0 0.0
2017-Apr-23 00:00N 37°49' W 122°19'0 0.0
2017-Apr-22 23:30N 37°49' W 122°19'0 0.0
2017-Apr-22 23:00N 37°49' W 122°19'0 0.0
2017-Apr-22 22:30N 37°49' W 122°19'0 0.0
2017-Apr-22 22:00N 37°49' W 122°19'0 0.0
2017-Apr-22 21:30N 37°49' W 122°19'0 0.0
2017-Apr-22 21:00N 37°49' W 122°19'0 0.0
2017-Apr-22 20:30N 37°49' W 122°19'0 0.0
2017-Apr-22 20:00N 37°49' W 122°19'0 0.0
2017-Apr-22 19:30N 37°49' W 122°19'0 0.0
2017-Apr-22 19:00N 37°49' W 122°19'0 0.0
2017-Apr-22 18:30N 37°49' W 122°19'0 0.0
2017-Apr-22 18:00N 37°49' W 122°19'0 0.0
2017-Apr-22 17:30N 37°49' W 122°19'0 0.0
2017-Apr-22 17:00N 37°49' W 122°19'0 0.0
2017-Apr-22 16:30N 37°49' W 122°19'0 0.0
2017-Apr-22 16:00N 37°49' W 122°19'0 0.0
2017-Apr-22 15:30N 37°49' W 122°19'0 0.0
2017-Apr-22 15:00N 37°49' W 122°19'0 0.0
2017-Apr-22 14:30N 37°49' W 122°19'2 1.6
2017-Apr-22 13:30N 37°48' W 122°19'1 1.6
2017-Apr-22 13:00N 37°48' W 122°18'1 1.6
2017-Apr-22 12:31N 37°48' W 122°17'2 3.9
2017-Apr-22 12:00N 37°48' W 122°20'2 3.4
2017-Apr-22 11:30N 37°49' W 122°19'0 0.1
2017-Apr-22 11:00N 37°49' W 122°19'0 0.0
2017-Apr-22 10:30N 37°49' W 122°19'0 0.0
2017-Apr-22 10:00N 37°49' W 122°19'0 0.0
2017-Apr-22 09:30N 37°49' W 122°19'0 0.0
2017-Apr-22 09:00N 37°49' W 122°19'0 0.0
2017-Apr-22 08:30N 37°49' W 122°19'0 0.0
2017-Apr-22 08:00N 37°49' W 122°19'0 0.0
2017-Apr-22 07:30N 37°49' W 122°19'0 0.0
2017-Apr-22 07:00N 37°49' W 122°19'0 0.0
2017-Apr-22 06:30N 37°49' W 122°19'0 0.0
2017-Apr-22 06:00N 37°49' W 122°19'0 0.0
2017-Apr-22 05:30N 37°49' W 122°19'0 0.0
2017-Apr-22 05:00N 37°49' W 122°19'0 0.0
2017-Apr-22 04:30N 37°49' W 122°19'0 0.0
2017-Apr-22 04:00N 37°49' W 122°19'0 0.0
2017-Apr-22 03:30N 37°49' W 122°19'0 0.0
2017-Apr-22 03:00N 37°49' W 122°19'0 0.0
2017-Apr-22 02:30N 37°49' W 122°19'0 0.0
2017-Apr-22 02:00N 37°49' W 122°19'0 0.0
2017-Apr-22 01:30N 37°49' W 122°19'0 0.0
2017-Apr-22 01:00N 37°49' W 122°19'0 0.0
2017-Apr-22 00:30N 37°49' W 122°19'0 0.0
2017-Apr-22 00:00N 37°49' W 122°19'0 0.6
2017-Apr-21 23:30N 37°49' W 122°19'1 2.8
2017-Apr-21 23:00N 37°48' W 122°19'0 0.1
2017-Apr-21 22:30N 37°48' W 122°19'0 0.0
2017-Apr-21 22:00N 37°48' W 122°19'0 0.0
2017-Apr-21 21:30N 37°48' W 122°19'1 1.8
2017-Apr-21 21:00N 37°48' W 122°20'510.4
2017-Apr-21 20:30N 37°52' W 122°24'711.1
2017-Apr-21 19:50N 37°60' W 122°25'511.1
2017-Apr-21 19:21N 38°03' W 122°20'511.3
2017-Apr-21 18:55N 38°04' W 122°14'4 4.5
2017-Apr-21 17:55N 38°02' W 122°08'0 0.0
2017-Apr-21 17:30N 38°02' W 122°08'0 0.0
2017-Apr-21 17:00N 38°02' W 122°08'0 0.0
2017-Apr-21 16:30N 38°02' W 122°08'0 0.0
2017-Apr-21 16:00N 38°02' W 122°08'0 0.0
2017-Apr-21 15:30N 38°02' W 122°08'0 0.0
2017-Apr-21 15:00N 38°02' W 122°08'0 0.2
2017-Apr-21 14:21N 38°02' W 122°08'0 0.1
2017-Apr-21 13:21N 38°02' W 122°08'1 2.9
2017-Apr-21 13:00N 38°02' W 122°09'0 0.8
2017-Apr-21 12:30N 38°02' W 122°10'1 0.0
2017-Apr-20 04:48N 38°02' W 122°08'3 2.1
2017-Apr-20 03:35N 38°03' W 122°11'213.2
2017-Apr-20 03:29N 38°04' W 122°13'713.1
2017-Apr-20 02:58N 38°02' W 122°21'612.9
2017-Apr-20 02:30N 37°58' W 122°26'612.5
2017-Apr-20 02:00N 37°52' W 122°24'610.4
2017-Apr-20 01:28N 37°48' W 122°19'0 0.2
2017-Apr-20 01:00N 37°48' W 122°19'1 1.8
2017-Apr-20 00:31N 37°48' W 122°20'2 3.2
2017-Apr-20 00:00N 37°49' W 122°19'0 0.0
2017-Apr-19 23:30N 37°49' W 122°19'0 0.0
2017-Apr-19 23:00N 37°49' W 122°19'0 0.0
2017-Apr-19 22:30N 37°49' W 122°19'0 0.0
2017-Apr-19 22:00N 37°49' W 122°19'0 0.0
2017-Apr-19 21:30N 37°49' W 122°19'0 0.0
2017-Apr-19 21:00N 37°49' W 122°19'0 0.0
2017-Apr-19 20:30N 37°49' W 122°19'0 0.0
2017-Apr-19 20:00N 37°49' W 122°19'0 0.0
2017-Apr-19 19:30N 37°49' W 122°19'0 0.0
2017-Apr-19 19:00N 37°49' W 122°19'0 0.0
2017-Apr-19 18:30N 37°49' W 122°19'0 0.0
2017-Apr-19 18:00N 37°49' W 122°19'0 0.0
2017-Apr-19 17:30N 37°49' W 122°19'0 0.0
2017-Apr-19 17:00N 37°49' W 122°19'0 0.0
2017-Apr-19 16:30N 37°49' W 122°19'0 0.0
2017-Apr-19 16:00N 37°49' W 122°19'0 0.0
2017-Apr-19 15:30N 37°49' W 122°19'0 0.0
2017-Apr-19 15:00N 37°49' W 122°19'1 1.1
2017-Apr-19 14:30N 37°49' W 122°19'2 1.6
2017-Apr-19 13:31N 37°48' W 122°18'0 0.6
2017-Apr-19 13:00N 37°48' W 122°18'3 5.1
2017-Apr-19 12:30N 37°48' W 122°21'2 3.9
2017-Apr-19 12:01N 37°47' W 122°23'0 0.0
2017-Apr-19 11:30N 37°47' W 122°23'0 0.1
2017-Apr-19 11:00N 37°47' W 122°23'0 0.0
2017-Apr-19 10:30N 37°47' W 122°23'0 0.0
2017-Apr-19 10:00N 37°47' W 122°23'0 0.0
2017-Apr-19 09:31N 37°47' W 122°23'0 0.0
2017-Apr-19 09:00N 37°47' W 122°23'0 0.0
2017-Apr-19 08:30N 37°47' W 122°23'4 8.6
2017-Apr-19 08:00N 37°51' W 122°24'713.0
2017-Apr-19 07:30N 37°58' W 122°26'712.3
2017-Apr-19 06:58N 38°03' W 122°20'4 8.1
2017-Apr-19 06:30N 38°03' W 122°16'0 0.0
2017-Apr-19 06:00N 38°03' W 122°16'0 0.0
2017-Apr-19 05:30N 38°03' W 122°16'0 0.3
2017-Apr-19 04:59N 38°04' W 122°16'2 4.0
2017-Apr-19 04:30N 38°03' W 122°18'3 5.2
2017-Apr-19 04:00N 38°03' W 122°15'0 0.0
2017-Apr-19 03:30N 38°03' W 122°15'0 0.0
2017-Apr-19 03:00N 38°03' W 122°15'0 0.0
2017-Apr-19 02:30N 38°03' W 122°15'0 0.0
2017-Apr-19 02:00N 38°03' W 122°15'0 0.0
2017-Apr-19 01:30N 38°03' W 122°15'5 0.4
2017-Apr-18 11:19N 38°02' W 122°08'2 0.4
2017-Apr-18 05:46N 38°03' W 122°11'311.2
2017-Apr-18 05:29N 38°04' W 122°15'611.6
2017-Apr-18 05:00N 38°02' W 122°22'611.2
2017-Apr-18 04:30N 37°57' W 122°26'2 4.3
2017-Apr-18 04:00N 37°55' W 122°25'0 0.5
2017-Apr-18 03:30N 37°56' W 122°25'0 0.1
2017-Apr-18 03:00N 37°56' W 122°25'0 0.0
2017-Apr-18 02:30N 37°56' W 122°25'0 0.0
2017-Apr-18 02:00N 37°56' W 122°25'0 0.0
2017-Apr-18 01:30N 37°56' W 122°25'0 0.0
2017-Apr-18 01:00N 37°56' W 122°25'0 0.0
2017-Apr-18 00:30N 37°56' W 122°25'2 3.0
2017-Apr-17 23:59N 37°57' W 122°26'5 8.7
2017-Apr-17 23:25N 38°01' W 122°23'410.2
2017-Apr-17 23:00N 38°03' W 122°18'4 7.9
2017-Apr-17 22:30N 38°03' W 122°13'0 0.1
2017-Apr-17 22:00N 38°04' W 122°13'3 5.4
2017-Apr-17 21:30N 38°04' W 122°16'3 5.7
2017-Apr-17 21:00N 38°03' W 122°20'5 9.3
2017-Apr-17 20:30N 37°60' W 122°24'611.5
2017-Apr-17 20:00N 37°54' W 122°25'5 9.6
2017-Apr-17 19:30N 37°50' W 122°22'3 5.3
2017-Apr-17 19:00N 37°49' W 122°19'0 0.0
2017-Apr-17 18:30N 37°49' W 122°19'0 0.0
2017-Apr-17 18:00N 37°49' W 122°19'0 0.0
2017-Apr-17 17:30N 37°49' W 122°19'0 0.0
2017-Apr-17 17:00N 37°49' W 122°19'0 0.0
2017-Apr-17 16:30N 37°49' W 122°19'0 0.0
2017-Apr-17 16:00N 37°49' W 122°19'0 0.0
2017-Apr-17 15:30N 37°49' W 122°19'0 0.0
2017-Apr-17 15:01N 37°49' W 122°19'0 0.0
2017-Apr-17 14:01N 37°49' W 122°19'0 0.0
2017-Apr-17 13:30N 37°49' W 122°19'0 0.0
2017-Apr-17 13:01N 37°49' W 122°19'0 0.0
2017-Apr-17 12:30N 37°49' W 122°19'0 0.0
2017-Apr-17 12:01N 37°49' W 122°19'0 0.0
2017-Apr-17 11:31N 37°49' W 122°19'0 0.0
2017-Apr-17 11:00N 37°49' W 122°19'0 0.0
2017-Apr-17 10:30N 37°49' W 122°19'0 0.0
2017-Apr-17 10:01N 37°49' W 122°19'0 0.0
2017-Apr-17 09:31N 37°49' W 122°19'0 0.0
2017-Apr-17 09:01N 37°49' W 122°19'0 0.0
2017-Apr-17 08:31N 37°49' W 122°19'0 0.0
2017-Apr-17 08:00N 37°49' W 122°19'0 0.0
2017-Apr-17 07:30N 37°49' W 122°19'0 0.0
2017-Apr-17 07:00N 37°49' W 122°19'0 0.0
2017-Apr-17 06:31N 37°49' W 122°19'0 0.0
2017-Apr-17 06:01N 37°49' W 122°19'2 3.5
2017-Apr-17 05:31N 37°48' W 122°21'510.5
2017-Apr-17 05:01N 37°43' W 122°20'11 3.6
2017-Apr-17 02:01N 37°34' W 122°13'011.2
2017-Apr-17 01:59N 37°34' W 122°14'511.3
2017-Apr-17 01:31N 37°38' W 122°18'611.0
2017-Apr-17 01:00N 37°44' W 122°20'510.3
2017-Apr-17 00:31N 37°49' W 122°20'1 2.9
2017-Apr-17 00:01N 37°49' W 122°19'0 0.0
2017-Apr-16 23:30N 37°49' W 122°19'0 0.0
2017-Apr-16 23:01N 37°49' W 122°19'0 0.0
2017-Apr-16 22:31N 37°49' W 122°19'0 0.0
2017-Apr-16 22:00N 37°49' W 122°19'0 0.0
2017-Apr-16 21:30N 37°49' W 122°19'0 0.0
2017-Apr-16 21:00N 37°49' W 122°19'0 0.0
2017-Apr-16 20:31N 37°49' W 122°19'0 0.0
2017-Apr-16 20:00N 37°49' W 122°19'0 0.0
2017-Apr-16 19:30N 37°49' W 122°19'0 0.0
2017-Apr-16 19:01N 37°49' W 122°19'0 0.0
2017-Apr-16 18:30N 37°49' W 122°19'0 0.0
2017-Apr-16 18:01N 37°49' W 122°19'0 0.0
2017-Apr-16 17:30N 37°49' W 122°19'0 0.0
2017-Apr-16 17:01N 37°49' W 122°19'0 0.0
2017-Apr-16 16:30N 37°49' W 122°19'0 0.0
2017-Apr-16 16:00N 37°49' W 122°19'0 0.0
2017-Apr-16 15:31N 37°49' W 122°19'0 0.0
2017-Apr-16 15:01N 37°49' W 122°19'0 0.0
2017-Apr-16 14:31N 37°49' W 122°19'0 0.1
2017-Apr-16 13:30N 37°49' W 122°19'2 3.3
2017-Apr-16 13:00N 37°48' W 122°19'0 0.5
2017-Apr-16 12:30N 37°48' W 122°19'3 6.0
2017-Apr-16 12:00N 37°48' W 122°23'3 6.6
2017-Apr-16 11:30N 37°49' W 122°19'0 0.0
2017-Apr-16 11:01N 37°49' W 122°19'0 0.0
2017-Apr-16 10:31N 37°49' W 122°19'0 0.0
2017-Apr-16 10:00N 37°49' W 122°19'0 0.0
2017-Apr-16 09:30N 37°49' W 122°19'0 0.0
2017-Apr-16 09:01N 37°49' W 122°19'0 0.0
2017-Apr-16 08:30N 37°49' W 122°19'0 0.0
2017-Apr-16 08:00N 37°49' W 122°19'0 0.0
2017-Apr-16 07:31N 37°49' W 122°19'0 0.0
2017-Apr-16 07:00N 37°49' W 122°19'0 0.0
2017-Apr-16 06:31N 37°49' W 122°19'  

Dump ship's entire track history